createdAt,value
2019-01-31T00:02:42.226Z,102.35
2019-01-31T00:07:17.758Z,104.32
2019-01-31T00:11:59.858Z,97.70
2019-01-31T00:16:32.819Z,99.97
2019-01-31T00:21:05.832Z,103.10
2019-01-31T00:25:49.303Z,105.65
2019-01-31T00:30:20.703Z,103.05
2019-01-31T00:35:20.955Z,105.83
2019-01-31T00:39:59.843Z,106.95
2019-01-31T00:44:33.005Z,104.85
2019-01-31T00:49:02.641Z,109.90
2019-01-31T00:53:45.787Z,115.80
2019-01-31T00:58:44.849Z,108.32
2019-01-31T01:03:11.036Z,108.07
2019-01-31T01:07:40.816Z,118.75
2019-01-31T01:12:10.484Z,114.60
2019-01-31T01:16:43.371Z,111.60
2019-01-31T01:21:10.288Z,126.02
2019-01-31T01:25:59.749Z,115.25
2019-01-31T01:30:43.450Z,120.57
2019-01-31T01:35:27.302Z,121.75
2019-01-31T01:40:19.968Z,119.95
2019-01-31T01:44:49.715Z,129.12
2019-01-31T01:49:19.431Z,126.97
2019-01-31T01:53:52.266Z,133.55
2019-01-31T01:58:19.306Z,123.45
2019-01-31T02:03:04.452Z,137.35
2019-01-31T02:07:32.363Z,130.07
2019-01-31T02:12:08.432Z,141.18
2019-01-31T02:16:44.202Z,122.72
2019-01-31T02:21:13.891Z,132.52
2019-01-31T02:25:59.168Z,135.00
2019-01-31T02:30:28.561Z,138.92
2019-01-31T02:35:10.668Z,143.47
2019-01-31T02:39:50.119Z,143.10
2019-01-31T02:44:17.006Z,136.43
2019-01-31T02:48:47.044Z,141.68
2019-01-31T02:53:19.485Z,135.40
2019-01-31T02:57:55.181Z,135.93
2019-01-31T03:02:31.462Z,140.22
2019-01-31T03:07:06.930Z,127.40
2019-01-31T03:11:33.791Z,136.62
2019-01-31T03:16:12.671Z,140.10
2019-01-31T03:20:56.220Z,144.28
2019-01-31T03:25:26.052Z,141.10
2019-01-31T03:30:05.620Z,147.72
2019-01-31T03:34:53.345Z,139.18
2019-01-31T03:39:32.538Z,147.40
2019-01-31T03:44:08.423Z,155.37
2019-01-31T03:48:43.954Z,141.70
2019-01-31T03:53:32.481Z,139.25
2019-01-31T03:58:11.282Z,137.60
2019-01-31T04:02:41.298Z,149.77
2019-01-31T04:07:05.404Z,135.50
2019-01-31T04:11:29.762Z,131.15
2019-01-31T04:15:53.269Z,140.32
2019-01-31T04:20:16.930Z,137.92
2019-01-31T04:24:40.591Z,134.50
2019-01-31T04:29:04.309Z,142.13
2019-01-31T04:33:27.903Z,134.22
2019-01-31T04:37:51.837Z,137.47
2019-01-31T04:42:15.694Z,134.47
2019-01-31T04:46:39.475Z,138.57
2019-01-31T04:51:03.400Z,136.97
2019-01-31T04:55:26.970Z,137.68
2019-01-31T04:59:52.379Z,140.12
2019-01-31T05:03:57.556Z,135.05
2019-01-31T05:08:21.399Z,132.78
2019-01-31T05:12:45.300Z,132.75
2019-01-31T05:17:09.207Z,137.20
2019-01-31T05:21:33.303Z,134.18
2019-01-31T05:25:57.250Z,139.97
2019-01-31T05:30:21.006Z,139.50
2019-01-31T05:34:44.805Z,132.12
2019-01-31T05:39:08.675Z,127.92
2019-01-31T05:43:32.561Z,122.65
2019-01-31T05:47:56.397Z,124.60
2019-01-31T05:52:20.364Z,124.12
2019-01-31T05:56:44.228Z,111.68
2019-01-31T06:01:08.127Z,124.02
2019-01-31T06:05:32.892Z,128.87
2019-01-31T06:09:56.711Z,123.85
2019-01-31T06:14:20.318Z,126.92
2019-01-31T06:18:44.009Z,136.52
2019-01-31T06:23:07.893Z,123.28
2019-01-31T06:27:31.538Z,127.72
2019-01-31T06:31:55.268Z,133.32
2019-01-31T06:36:19.469Z,121.70
2019-01-31T06:40:43.097Z,129.82
2019-01-31T06:45:12.896Z,127.10
2019-01-31T06:49:36.632Z,131.47
2019-01-31T06:54:00.442Z,136.62
2019-01-31T06:58:24.375Z,137.28
2019-01-31T07:02:48.376Z,127.27
2019-01-31T07:07:12.296Z,133.90
2019-01-31T07:11:37.554Z,127.10
2019-01-31T07:16:01.295Z,126.18
2019-01-31T07:20:25.069Z,125.82
2019-01-31T07:24:48.975Z,133.97
2019-01-31T07:29:12.863Z,130.55
2019-01-31T07:33:36.324Z,132.95
2019-01-31T07:38:00.123Z,131.35
2019-01-31T07:42:05.362Z,123.35
2019-01-31T07:46:11.530Z,130.30
2019-01-31T07:50:18.651Z,127.50
2019-01-31T07:54:23.895Z,128.05
2019-01-31T07:58:30.134Z,122.47
2019-01-31T08:02:35.379Z,129.42
2019-01-31T08:06:40.593Z,119.72
2019-01-31T08:10:45.827Z,118.85
2019-01-31T08:14:51.133Z,130.78
2019-01-31T08:18:56.347Z,129.15
2019-01-31T08:23:01.587Z,122.78
2019-01-31T08:27:06.820Z,122.33
2019-01-31T08:31:12.087Z,122.85
2019-01-31T08:35:17.305Z,118.62
2019-01-31T08:39:22.553Z,122.92
2019-01-31T08:43:27.749Z,120.37
2019-01-31T08:47:33.011Z,122.25
2019-01-31T08:51:38.208Z,125.20
2019-01-31T08:55:43.437Z,117.75
2019-01-31T08:59:48.766Z,123.42
2019-01-31T09:03:54.083Z,115.40
2019-01-31T09:07:59.327Z,119.82
2019-01-31T09:12:14.775Z,116.28
2019-01-31T09:16:11.494Z,111.15
2019-01-31T09:20:22.772Z,115.17
2019-01-31T09:24:31.084Z,109.00
2019-01-31T09:28:48.505Z,101.82
2019-01-31T09:33:02.750Z,104.30
2019-01-31T09:37:29.046Z,111.32
2019-01-31T09:41:42.865Z,107.50
2019-01-31T09:45:57.002Z,107.37
2019-01-31T09:50:45.192Z,104.95
2019-01-31T09:55:36.246Z,107.30
2019-01-31T10:00:03.009Z,107.45
2019-01-31T10:04:35.915Z,94.45
2019-01-31T10:09:08.469Z,96.30
2019-01-31T10:13:35.389Z,101.38
2019-01-31T10:18:23.697Z,97.62
2019-01-31T10:22:59.611Z,96.40
2019-01-31T10:27:55.568Z,106.15
2019-01-31T10:32:28.844Z,103.67
2019-01-31T10:37:11.534Z,104.58
2019-01-31T10:41:55.062Z,96.57
2019-01-31T10:46:34.339Z,98.25
2019-01-31T10:51:27.460Z,96.82
2019-01-31T10:56:00.040Z,103.65
2019-01-31T11:00:42.327Z,92.88
2019-01-31T11:05:20.640Z,98.70
2019-01-31T11:09:59.485Z,93.50
2019-01-31T11:14:35.380Z,91.75
2019-01-31T11:19:25.421Z,97.37
2019-01-31T11:24:13.092Z,88.65
2019-01-31T11:28:56.655Z,99.30
2019-01-31T11:33:23.485Z,91.72
2019-01-31T11:37:56.259Z,95.25
2019-01-31T11:42:23.170Z,95.87
2019-01-31T11:46:53.134Z,98.20
2019-01-31T11:51:39.630Z,97.35
2019-01-31T11:56:18.879Z,99.97
2019-01-31T12:00:42.394Z,103.50
2019-01-31T12:05:06.022Z,101.20
2019-01-31T12:09:29.822Z,98.78
2019-01-31T12:13:53.617Z,96.53
2019-01-31T12:18:17.764Z,100.67
2019-01-31T12:22:41.739Z,99.07
2019-01-31T12:27:05.434Z,94.30
2019-01-31T12:31:29.296Z,98.67
2019-01-31T12:35:53.140Z,101.07
2019-01-31T12:40:18.254Z,88.82
2019-01-31T12:44:42.181Z,110.22
2019-01-31T12:48:47.491Z,99.83
2019-01-31T12:52:53.993Z,101.22
2019-01-31T12:56:59.282Z,100.95
2019-01-31T13:01:04.761Z,94.95
2019-01-31T13:05:09.969Z,107.30
2019-01-31T13:09:15.219Z,103.47
2019-01-31T13:13:20.455Z,99.20
2019-01-31T13:17:25.746Z,104.15
2019-01-31T13:21:30.964Z,102.12
2019-01-31T13:25:36.240Z,101.90
2019-01-31T13:29:41.612Z,98.35
2019-01-31T13:33:46.981Z,102.00
2019-01-31T13:37:52.314Z,106.17
2019-01-31T13:41:57.611Z,108.03
2019-01-31T13:46:21.547Z,101.02
2019-01-31T13:50:45.566Z,114.15
2019-01-31T13:55:15.359Z,102.92
2019-01-31T13:59:39.424Z,110.57
2019-01-31T14:04:03.236Z,104.15
2019-01-31T14:08:27.311Z,113.77
2019-01-31T14:12:51.001Z,114.75
2019-01-31T14:17:14.741Z,111.42
2019-01-31T14:21:38.427Z,117.17
2019-01-31T14:26:01.947Z,118.60
2019-01-31T14:30:36.259Z,111.10
2019-01-31T14:35:00.333Z,108.97
2019-01-31T14:39:25.318Z,108.03
2019-01-31T14:43:48.979Z,117.80
2019-01-31T14:48:13.058Z,114.50
2019-01-31T14:52:37.080Z,114.03
2019-01-31T14:57:00.959Z,122.82
2019-01-31T15:01:25.491Z,112.80
2019-01-31T15:05:49.112Z,116.30
2019-01-31T15:10:15.697Z,116.97
2019-01-31T15:14:39.684Z,124.25
2019-01-31T15:19:03.564Z,114.45
2019-01-31T15:23:27.457Z,121.25
2019-01-31T15:27:51.425Z,107.92
2019-01-31T15:32:15.385Z,115.45
2019-01-31T15:36:39.862Z,114.42
2019-01-31T15:41:04.127Z,125.38
2019-01-31T15:45:09.825Z,115.57
2019-01-31T15:49:35.370Z,116.10
2019-01-31T15:53:59.531Z,114.28
2019-01-31T15:58:23.209Z,121.22
2019-01-31T16:02:47.400Z,121.20
2019-01-31T16:07:11.491Z,116.82
2019-01-31T16:11:37.465Z,116.33
2019-01-31T16:16:01.493Z,115.72
2019-01-31T16:20:26.423Z,122.22
2019-01-31T16:24:50.715Z,122.78
2019-01-31T16:29:18.123Z,119.10
2019-01-31T16:33:41.352Z,121.87
2019-01-31T16:38:07.797Z,128.45
2019-01-31T16:42:32.195Z,113.90
2019-01-31T16:46:58.024Z,125.53
2019-01-31T16:51:22.249Z,115.15
2019-01-31T16:55:46.100Z,119.00
2019-01-31T17:00:15.637Z,125.62
2019-01-31T17:04:40.662Z,135.87
2019-01-31T17:09:07.405Z,124.92
2019-01-31T17:13:33.160Z,124.27
2019-01-31T17:17:58.199Z,123.30
2019-01-31T17:22:22.416Z,124.00
2019-01-31T17:26:47.118Z,124.67
2019-01-31T17:31:11.253Z,129.25
2019-01-31T17:35:36.014Z,132.80
2019-01-31T17:40:00.307Z,133.50
2019-01-31T17:44:28.046Z,129.90
2019-01-31T17:48:51.988Z,131.65
2019-01-31T17:53:16.368Z,134.87
2019-01-31T17:57:40.557Z,133.27
2019-01-31T18:02:04.750Z,137.75
2019-01-31T18:06:30.582Z,125.55
2019-01-31T18:10:55.285Z,142.55
2019-01-31T18:15:20.857Z,152.32
2019-01-31T18:19:45.109Z,146.22
2019-01-31T18:24:09.908Z,149.30
2019-01-31T18:28:36.149Z,147.87
2019-01-31T18:33:00.446Z,153.25
2019-01-31T18:37:24.738Z,159.52
2019-01-31T18:41:48.725Z,154.65
2019-01-31T18:46:14.251Z,164.28
2019-01-31T18:50:42.435Z,142.47
2019-01-31T18:55:06.959Z,159.97
2019-01-31T18:59:31.951Z,155.75
2019-01-31T19:03:56.647Z,163.95
2019-01-31T19:08:21.147Z,153.35
2019-01-31T19:12:45.342Z,159.65
2019-01-31T19:17:09.429Z,154.45
2019-01-31T19:21:33.621Z,160.37
2019-01-31T19:25:57.919Z,161.32
2019-01-31T19:30:35.662Z,155.97
2019-01-31T19:35:03.809Z,151.05
2019-01-31T19:39:28.310Z,153.45
2019-01-31T19:43:53.937Z,156.72
2019-01-31T19:48:18.541Z,157.05
2019-01-31T19:52:44.786Z,157.52
2019-01-31T19:57:11.936Z,152.87
2019-01-31T20:01:36.041Z,149.87
2019-01-31T20:06:01.083Z,156.00
2019-01-31T20:10:33.758Z,160.25
2019-01-31T20:14:57.921Z,155.75
2019-01-31T20:19:22.701Z,164.65
2019-01-31T20:23:49.712Z,161.95
2019-01-31T20:28:15.719Z,165.15
2019-01-31T20:32:40.423Z,158.03
2019-01-31T20:37:04.921Z,167.90
2019-01-31T20:41:31.526Z,166.28
2019-01-31T20:45:55.819Z,165.80
2019-01-31T20:50:22.256Z,177.70
2019-01-31T20:54:48.551Z,161.77
2019-01-31T20:59:12.743Z,168.00
2019-01-31T21:03:39.726Z,163.52
2019-01-31T21:08:05.304Z,175.78
2019-01-31T21:12:29.518Z,167.50
2019-01-31T21:16:57.226Z,168.43
2019-01-31T21:21:23.544Z,178.42
2019-01-31T21:25:48.955Z,174.40
2019-01-31T21:30:31.002Z,169.60
2019-01-31T21:34:54.951Z,173.30
2019-01-31T21:39:19.144Z,174.72
2019-01-31T21:43:43.335Z,169.28
2019-01-31T21:47:48.894Z,171.07
2019-01-31T21:52:12.594Z,176.00
2019-01-31T21:56:37.070Z,169.62
2019-01-31T22:01:01.410Z,171.65
2019-01-31T22:05:26.476Z,171.77
2019-01-31T22:09:53.537Z,178.10
2019-01-31T22:14:18.241Z,173.30
2019-01-31T22:18:42.640Z,170.95
2019-01-31T22:23:08.163Z,166.70
2019-01-31T22:27:32.148Z,172.68
2019-01-31T22:31:56.238Z,177.25
2019-01-31T22:36:20.146Z,178.90
2019-01-31T22:40:44.419Z,174.55
2019-01-31T22:45:16.720Z,178.30
2019-01-31T22:49:41.197Z,178.93
2019-01-31T22:54:05.181Z,185.18
2019-01-31T22:58:28.969Z,193.15
2019-01-31T23:02:52.850Z,179.82
2019-01-31T23:07:17.248Z,183.65
2019-01-31T23:11:41.648Z,194.35
2019-01-31T23:16:05.941Z,184.85
2019-01-31T23:20:30.055Z,189.40
2019-01-31T23:24:54.512Z,184.03
2019-01-31T23:29:18.413Z,184.82
2019-01-31T23:33:42.401Z,181.07
2019-01-31T23:38:06.593Z,197.05
2019-01-31T23:42:30.579Z,182.47
2019-01-31T23:46:54.583Z,194.82
2019-01-31T23:51:18.374Z,200.10
2019-01-31T23:55:42.281Z,208.82
